createdAt,value
2023-01-17T00:02:21.565Z,8.50
2023-01-17T00:05:07.482Z,9.70
2023-01-17T00:07:54.063Z,10.30
2023-01-17T00:10:26.645Z,9.20
2023-01-17T00:13:02.861Z,8.40
2023-01-17T00:15:32.585Z,8.30
2023-01-17T00:17:59.468Z,6.50
2023-01-17T00:20:48.376Z,9.00
2023-01-17T00:23:39.815Z,8.40
2023-01-17T00:26:12.901Z,9.30
2023-01-17T00:28:41.164Z,10.60
2023-01-17T00:31:19.759Z,11.50
2023-01-17T00:33:46.675Z,9.50
2023-01-17T00:36:14.614Z,10.90
2023-01-17T00:38:41.748Z,10.10
2023-01-17T00:41:14.164Z,11.30
2023-01-17T00:43:59.591Z,8.70
2023-01-17T00:49:46.690Z,9.40
2023-01-17T00:52:32.090Z,9.90
2023-01-17T00:55:17.435Z,8.20
2023-01-17T00:58:04.295Z,8.30
2023-01-17T01:00:50.150Z,10.70
2023-01-17T01:03:35.755Z,12.80
2023-01-17T01:06:25.095Z,12.20
2023-01-17T01:09:10.683Z,14.30
2023-01-17T01:12:05.473Z,13.10
2023-01-17T01:14:51.564Z,13.90
2023-01-17T01:17:43.661Z,13.20
2023-01-17T01:20:29.735Z,13.80
2023-01-17T01:23:15.035Z,11.40
2023-01-17T01:26:15.914Z,12.80
2023-01-17T01:29:01.471Z,11.60
2023-01-17T01:31:46.804Z,10.80
2023-01-17T01:34:19.761Z,11.60
2023-01-17T01:36:46.756Z,12.60
2023-01-17T01:39:13.695Z,11.30
2023-01-17T01:41:40.959Z,8.00
2023-01-17T01:44:45.946Z,9.50
2023-01-17T01:47:25.494Z,7.40
2023-01-17T01:49:55.335Z,14.80
2023-01-17T01:52:30.295Z,11.60
2023-01-17T01:55:04.265Z,14.40
2023-01-17T01:57:37.681Z,14.90
2023-01-17T02:00:22.744Z,19.10
2023-01-17T02:02:55.948Z,14.40
2023-01-17T02:05:24.997Z,13.10
2023-01-17T02:08:07.345Z,13.60
2023-01-17T02:10:37.030Z,9.80
2023-01-17T02:13:04.894Z,8.00
2023-01-17T02:15:45.563Z,5.20
2023-01-17T02:18:20.808Z,5.60
2023-01-17T02:20:47.655Z,4.20
2023-01-17T02:23:36.537Z,6.70
2023-01-17T02:26:42.080Z,6.00
2023-01-17T02:29:41.837Z,3.70
2023-01-17T02:32:27.078Z,3.90
2023-01-17T02:35:16.518Z,4.60
2023-01-17T02:38:06.729Z,6.60
2023-01-17T02:40:53.940Z,4.50
2023-01-17T02:43:25.655Z,4.70
2023-01-17T02:45:52.459Z,4.20
2023-01-17T02:48:23.803Z,5.40
2023-01-17T02:51:12.559Z,5.30
2023-01-17T02:54:19.656Z,5.30
2023-01-17T02:56:58.955Z,4.40
2023-01-17T02:59:44.138Z,4.90
2023-01-17T03:02:17.652Z,4.00
2023-01-17T03:04:50.951Z,5.60
2023-01-17T03:07:23.252Z,9.60
2023-01-17T03:09:55.629Z,7.60
2023-01-17T03:12:22.380Z,7.30
2023-01-17T03:14:49.126Z,8.70
2023-01-17T03:17:26.223Z,6.80
2023-01-17T03:19:55.613Z,8.90
2023-01-17T03:22:23.258Z,6.30
2023-01-17T03:24:50.249Z,9.50
2023-01-17T03:27:16.995Z,8.80
2023-01-17T03:29:43.787Z,9.20
2023-01-17T03:32:10.580Z,10.30
2023-01-17T03:34:42.695Z,11.10
2023-01-17T03:37:09.436Z,7.90
2023-01-17T03:39:36.299Z,8.30
2023-01-17T03:42:04.380Z,9.10
2023-01-17T03:44:31.269Z,7.50
2023-01-17T03:46:57.983Z,10.80
2023-01-17T03:49:24.761Z,7.10
2023-01-17T03:51:51.622Z,7.50
2023-01-17T03:54:20.748Z,8.20
2023-01-17T03:56:56.231Z,11.10
2023-01-17T03:59:29.507Z,9.20
2023-01-17T04:01:56.330Z,13.20
2023-01-17T04:04:25.159Z,10.70
2023-01-17T04:06:52.256Z,11.20
2023-01-17T04:09:19.152Z,9.90
2023-01-17T04:11:50.244Z,8.40
2023-01-17T04:14:17.166Z,9.00
2023-01-17T04:16:44.321Z,6.70
2023-01-17T04:19:14.502Z,4.70
2023-01-17T04:21:41.281Z,6.00
2023-01-17T04:24:08.235Z,5.90
2023-01-17T04:26:37.400Z,5.50
2023-01-17T04:29:13.145Z,6.20
2023-01-17T04:31:41.163Z,7.90
2023-01-17T04:34:16.041Z,7.30
2023-01-17T04:36:42.935Z,8.40
2023-01-17T04:39:09.894Z,9.40
2023-01-17T04:41:37.339Z,8.50
2023-01-17T04:44:04.272Z,8.60
2023-01-17T04:46:31.519Z,9.50
2023-01-17T04:48:59.944Z,8.70
2023-01-17T04:51:26.870Z,9.70
2023-01-17T04:53:53.794Z,11.60
2023-01-17T04:59:02.328Z,11.70
2023-01-17T05:01:33.680Z,7.70
2023-01-17T05:04:00.628Z,9.50
2023-01-17T05:06:29.192Z,10.10
2023-01-17T05:08:56.100Z,12.20
2023-01-17T05:11:23.146Z,8.30
2023-01-17T05:13:50.028Z,10.80
2023-01-17T05:16:20.042Z,11.30
2023-01-17T05:18:51.335Z,11.70
2023-01-17T05:21:18.234Z,15.90
2023-01-17T05:23:45.415Z,12.50
2023-01-17T05:26:15.570Z,12.70
2023-01-17T05:28:50.884Z,13.50
2023-01-17T05:31:17.996Z,19.90
2023-01-17T05:33:44.951Z,12.30
2023-01-17T05:36:12.313Z,13.50
2023-01-17T05:38:42.227Z,11.80
2023-01-17T05:41:09.088Z,12.80
2023-01-17T05:43:36.160Z,10.40
2023-01-17T05:46:03.137Z,9.30
2023-01-17T05:48:30.117Z,7.30
2023-01-17T05:50:58.393Z,8.60
2023-01-17T05:53:25.383Z,9.60
2023-01-17T05:55:52.320Z,12.00
2023-01-17T05:58:20.981Z,10.80
2023-01-17T06:00:50.203Z,12.40
2023-01-17T06:03:17.598Z,9.80
2023-01-17T06:05:44.576Z,13.00
2023-01-17T06:08:11.415Z,11.10
2023-01-17T06:10:38.353Z,11.90
2023-01-17T06:13:11.632Z,12.40
2023-01-17T06:15:38.911Z,10.90
2023-01-17T06:18:10.865Z,11.90
2023-01-17T06:20:58.955Z,10.80
2023-01-17T06:23:28.224Z,11.90
2023-01-17T06:25:56.125Z,11.40
2023-01-17T06:28:23.409Z,15.10
2023-01-17T06:30:50.461Z,13.20
2023-01-17T06:33:17.231Z,12.30
2023-01-17T06:35:51.829Z,13.60
2023-01-17T06:38:19.333Z,11.90
2023-01-17T06:40:46.384Z,14.70
2023-01-17T06:43:13.258Z,13.60
2023-01-17T06:45:40.078Z,12.00
2023-01-17T06:48:07.445Z,16.80
2023-01-17T06:50:34.708Z,12.40
2023-01-17T06:53:04.923Z,12.80
2023-01-17T06:55:33.997Z,11.70
2023-01-17T06:58:03.358Z,11.40
2023-01-17T07:00:31.417Z,12.40
2023-01-17T07:02:58.524Z,11.50
2023-01-17T07:05:25.719Z,13.80
2023-01-17T07:07:54.178Z,13.50
2023-01-17T07:10:21.371Z,13.40
2023-01-17T07:12:48.177Z,13.40
2023-01-17T07:15:15.201Z,12.40
2023-01-17T07:17:42.021Z,14.60
2023-01-17T07:20:09.424Z,13.20
2023-01-17T07:22:37.195Z,14.00
2023-01-17T07:25:04.629Z,12.00
2023-01-17T07:27:32.920Z,14.60
2023-01-17T07:29:59.804Z,14.40
2023-01-17T07:32:27.679Z,17.00
2023-01-17T07:34:56.874Z,15.10
2023-01-17T07:37:25.517Z,13.20
2023-01-17T07:39:56.020Z,13.20
2023-01-17T07:42:24.194Z,11.10
2023-01-17T07:44:52.826Z,13.60
2023-01-17T07:47:19.748Z,12.20
2023-01-17T07:49:46.598Z,9.60
2023-01-17T07:52:13.398Z,9.60
2023-01-17T07:54:42.295Z,6.40
2023-01-17T07:57:11.585Z,8.40
2023-01-17T07:59:38.507Z,7.00
2023-01-17T08:02:05.695Z,6.80
2023-01-17T08:04:34.886Z,6.50
2023-01-17T08:07:03.355Z,6.10
2023-01-17T08:09:30.585Z,7.00
2023-01-17T08:11:57.791Z,4.70
2023-01-17T08:14:25.091Z,4.80
2023-01-17T08:16:52.728Z,6.30
2023-01-17T08:19:19.865Z,4.90
2023-01-17T08:21:47.055Z,6.40
2023-01-17T08:24:14.058Z,4.20
2023-01-17T08:26:40.970Z,4.30
2023-01-17T08:29:08.578Z,5.80
2023-01-17T08:31:36.106Z,5.10
2023-01-17T08:34:04.408Z,3.80
2023-01-17T08:36:31.472Z,4.20
2023-01-17T08:38:58.563Z,3.70
2023-01-17T08:41:28.747Z,3.70
2023-01-17T08:46:23.708Z,2.50
2023-01-17T08:49:00.806Z,2.50
2023-01-17T08:51:28.886Z,3.20
2023-01-17T08:53:56.136Z,4.40
2023-01-17T08:56:23.373Z,5.50
2023-01-17T08:58:50.535Z,4.00
2023-01-17T09:01:20.141Z,5.20
2023-01-17T09:03:50.706Z,3.80
2023-01-17T09:08:46.487Z,5.70
2023-01-17T09:11:16.229Z,5.10
2023-01-17T09:13:44.041Z,5.70
2023-01-17T09:16:11.268Z,6.50
2023-01-17T09:18:38.676Z,5.10
2023-01-17T09:21:17.254Z,6.30
2023-01-17T09:23:45.381Z,7.60
2023-01-17T09:26:22.659Z,8.70
2023-01-17T09:28:50.172Z,9.60
2023-01-17T09:31:20.182Z,8.90
2023-01-17T09:33:51.637Z,7.80
2023-01-17T09:36:19.339Z,8.00
2023-01-17T09:38:46.428Z,8.30
2023-01-17T09:41:59.046Z,11.30
2023-01-17T09:44:36.612Z,8.90
2023-01-17T09:47:14.121Z,11.60
2023-01-17T09:49:43.816Z,9.20
2023-01-17T09:52:17.625Z,7.90
2023-01-17T09:54:47.545Z,6.30
2023-01-17T09:57:41.866Z,7.70
2023-01-17T10:00:12.456Z,7.30
2023-01-17T10:02:58.380Z,11.10
2023-01-17T10:05:37.365Z,7.30
2023-01-17T10:08:07.050Z,10.40
2023-01-17T10:10:40.867Z,10.10
2023-01-17T10:13:16.690Z,10.80
2023-01-17T10:15:49.277Z,12.60
2023-01-17T10:18:31.573Z,11.00
2023-01-17T10:21:27.170Z,11.80
2023-01-17T10:24:15.798Z,11.10
2023-01-17T10:26:52.090Z,10.30
2023-01-17T10:29:22.628Z,10.00
2023-01-17T10:31:57.503Z,10.30
2023-01-17T10:34:32.352Z,9.40
2023-01-17T10:37:31.427Z,7.80
2023-01-17T10:40:13.390Z,6.80
2023-01-17T10:42:54.224Z,5.70
2023-01-17T10:45:27.806Z,4.70
2023-01-17T10:48:07.190Z,4.00
2023-01-17T10:50:52.677Z,2.90
2023-01-17T10:54:02.023Z,4.60
2023-01-17T10:56:30.368Z,3.30
2023-01-17T10:59:16.823Z,3.40
2023-01-17T11:01:44.672Z,2.60
2023-01-17T11:07:18.555Z,2.70
2023-01-17T11:09:51.545Z,3.60
2023-01-17T11:12:46.595Z,3.60
2023-01-17T11:15:17.293Z,2.20
2023-01-17T11:17:52.290Z,3.20
2023-01-17T11:20:40.552Z,3.60
2023-01-17T11:23:30.118Z,2.70
2023-01-17T11:26:02.072Z,1.60
2023-01-17T11:28:34.399Z,3.60
2023-01-17T11:31:20.811Z,3.50
2023-01-17T11:34:06.123Z,4.20
2023-01-17T11:36:35.201Z,5.90
2023-01-17T11:39:21.572Z,6.40
2023-01-17T11:41:48.355Z,5.30
2023-01-17T11:44:35.543Z,6.10
2023-01-17T11:47:09.488Z,5.30
2023-01-17T11:49:36.825Z,5.60
2023-01-17T11:52:09.434Z,6.60
2023-01-17T11:57:26.369Z,7.40
2023-01-17T12:00:01.315Z,5.60
2023-01-17T12:02:31.345Z,6.30
2023-01-17T12:05:28.537Z,6.80
2023-01-17T12:08:17.195Z,7.90
2023-01-17T12:10:53.024Z,5.10
2023-01-17T12:13:54.785Z,5.80
2023-01-17T12:16:38.729Z,6.20
2023-01-17T12:19:15.548Z,4.90
2023-01-17T12:22:05.650Z,5.20
2023-01-17T12:25:01.623Z,5.10
2023-01-17T12:27:52.219Z,4.10
2023-01-17T12:30:30.278Z,2.00
2023-01-17T12:33:03.315Z,2.90
2023-01-17T12:35:33.232Z,1.40
2023-01-17T12:38:23.652Z,2.40
2023-01-17T12:41:05.368Z,1.70
2023-01-17T12:43:43.653Z,1.20
2023-01-17T12:46:38.112Z,1.30
2023-01-17T12:49:25.726Z,1.40
2023-01-17T12:51:58.953Z,1.20
2023-01-17T12:54:41.254Z,3.10
2023-01-17T12:57:17.895Z,2.20
2023-01-17T13:00:03.308Z,1.30
2023-01-17T13:02:48.784Z,1.60
2023-01-17T13:05:24.128Z,2.10
2023-01-17T13:08:01.587Z,1.70
2023-01-17T13:10:44.397Z,2.20
2023-01-17T13:13:25.777Z,2.40
2023-01-17T13:16:00.101Z,2.60
2023-01-17T13:18:29.214Z,3.70
2023-01-17T13:21:11.033Z,3.00
2023-01-17T13:24:03.235Z,2.30
2023-01-17T13:26:54.887Z,2.10
2023-01-17T13:29:57.049Z,2.60
2023-01-17T13:32:41.324Z,1.40
2023-01-17T13:35:41.428Z,2.80
2023-01-17T13:38:36.427Z,4.40
2023-01-17T13:41:21.818Z,4.20
2023-01-17T13:44:07.284Z,0.70
2023-01-17T13:46:55.992Z,1.00
2023-01-17T13:49:30.841Z,3.90
2023-01-17T13:52:04.195Z,1.50
2023-01-17T13:54:33.387Z,1.80
2023-01-17T13:57:27.907Z,1.80
2023-01-17T13:59:59.840Z,1.30
2023-01-17T14:02:32.671Z,3.70
2023-01-17T14:05:22.826Z,0.80
2023-01-17T14:07:58.218Z,1.00
2023-01-17T14:10:28.103Z,2.50
2023-01-17T14:12:55.495Z,3.50
2023-01-17T14:15:34.273Z,4.30
2023-01-17T14:18:03.904Z,3.40
2023-01-17T14:20:39.891Z,4.00
2023-01-17T14:23:36.207Z,3.60
2023-01-17T14:26:21.906Z,3.50
2023-01-17T14:28:48.833Z,4.10
2023-01-17T14:31:19.103Z,4.20
2023-01-17T14:36:24.474Z,4.50
2023-01-17T14:38:51.327Z,3.80
2023-01-17T14:41:28.352Z,3.60
2023-01-17T14:43:59.077Z,3.70
2023-01-17T14:46:30.403Z,3.90
2023-01-17T14:49:03.461Z,4.40
2023-01-17T14:51:34.533Z,3.90
2023-01-17T14:54:04.744Z,6.70
2023-01-17T14:56:35.482Z,3.10
2023-01-17T14:59:19.599Z,3.10
2023-01-17T15:02:06.734Z,5.00
2023-01-17T15:04:38.522Z,2.50
2023-01-17T15:07:06.322Z,2.80
2023-01-17T15:09:38.042Z,3.60
2023-01-17T15:12:09.806Z,5.10
2023-01-17T15:14:41.206Z,3.90
2023-01-17T15:17:14.683Z,3.50
2023-01-17T15:19:52.292Z,3.20
2023-01-17T15:22:19.898Z,7.70
2023-01-17T15:24:47.430Z,3.10
2023-01-17T15:27:17.864Z,4.70
2023-01-17T15:29:46.958Z,6.60
2023-01-17T15:32:27.416Z,5.00
2023-01-17T15:34:54.244Z,5.00
2023-01-17T15:37:39.981Z,4.00
2023-01-17T15:40:23.248Z,3.60
2023-01-17T15:42:54.097Z,7.50
2023-01-17T15:45:26.662Z,7.30
2023-01-17T15:47:53.620Z,2.20
2023-01-17T15:50:24.709Z,11.30
2023-01-17T15:52:56.263Z,14.80
2023-01-17T15:55:33.590Z,8.40
2023-01-17T15:58:02.060Z,8.40
2023-01-17T16:00:36.820Z,4.40
2023-01-17T16:03:28.798Z,4.70
2023-01-17T16:06:00.480Z,3.70
2023-01-17T16:08:39.201Z,1.70
2023-01-17T16:11:08.067Z,3.60
2023-01-17T16:13:41.661Z,2.90
2023-01-17T16:16:15.249Z,3.10
2023-01-17T16:18:42.729Z,4.60
2023-01-17T16:21:30.535Z,8.10
2023-01-17T16:23:59.147Z,5.00
2023-01-17T16:26:28.366Z,3.30
2023-01-17T16:28:55.368Z,4.10
2023-01-17T16:31:22.208Z,5.80
2023-01-17T16:33:50.058Z,8.00
2023-01-17T16:36:20.623Z,4.90
2023-01-17T16:38:58.980Z,4.10
2023-01-17T16:41:25.729Z,4.10
2023-01-17T16:44:04.851Z,4.70
2023-01-17T16:46:32.034Z,5.30
2023-01-17T16:49:00.158Z,10.00
2023-01-17T16:51:27.065Z,6.90
2023-01-17T16:53:54.001Z,7.30
2023-01-17T16:56:21.203Z,5.90
2023-01-17T16:58:47.970Z,6.00
2023-01-17T17:01:22.004Z,5.50
2023-01-17T17:03:49.037Z,7.90
2023-01-17T17:06:22.032Z,6.50
2023-01-17T17:08:48.751Z,6.50
2023-01-17T17:11:21.198Z,8.00
2023-01-17T17:13:49.485Z,6.00
2023-01-17T17:16:24.094Z,4.80
2023-01-17T17:18:58.190Z,6.40
2023-01-17T17:21:25.735Z,5.40
2023-01-17T17:23:57.737Z,5.40
2023-01-17T17:26:33.596Z,4.80
2023-01-17T17:29:01.560Z,4.70
2023-01-17T17:31:28.724Z,4.30
2023-01-17T17:34:00.393Z,5.70
2023-01-17T17:36:27.679Z,5.60
2023-01-17T17:38:55.992Z,6.00
2023-01-17T17:41:25.444Z,4.10
2023-01-17T17:43:53.187Z,4.70
2023-01-17T17:46:23.455Z,5.20
2023-01-17T17:48:50.256Z,4.90
2023-01-17T17:51:26.524Z,5.60
2023-01-17T17:53:55.091Z,5.40
2023-01-17T17:56:23.162Z,3.60
2023-01-17T17:58:50.427Z,6.20
2023-01-17T18:01:37.486Z,7.10
2023-01-17T18:04:06.843Z,4.80
2023-01-17T18:06:34.914Z,6.20
2023-01-17T18:09:03.135Z,8.60
2023-01-17T18:11:30.751Z,5.90
2023-01-17T18:14:00.946Z,6.80
2023-01-17T18:19:03.940Z,7.00
2023-01-17T18:21:36.959Z,8.30
2023-01-17T18:24:05.302Z,9.30
2023-01-17T18:26:39.943Z,7.80
2023-01-17T18:29:09.119Z,8.70
2023-01-17T18:31:36.193Z,7.30
2023-01-17T18:34:07.085Z,9.60
2023-01-17T18:36:35.071Z,8.40
2023-01-17T18:39:08.879Z,8.40
2023-01-17T18:41:35.797Z,9.50
2023-01-17T18:44:06.930Z,9.90
2023-01-17T18:46:37.829Z,9.50
2023-01-17T18:49:05.135Z,10.60
2023-01-17T18:51:34.355Z,11.70
2023-01-17T18:54:06.672Z,8.50
2023-01-17T18:56:46.827Z,6.80
2023-01-17T18:59:18.991Z,10.50
2023-01-17T19:01:48.662Z,6.50
2023-01-17T19:04:17.483Z,6.60
2023-01-17T19:06:49.877Z,9.30
2023-01-17T19:09:19.566Z,7.00
2023-01-17T19:11:46.860Z,9.50
2023-01-17T19:14:15.223Z,7.50
2023-01-17T19:16:43.268Z,7.10
2023-01-17T19:19:14.855Z,5.20
2023-01-17T19:21:45.611Z,6.20
2023-01-17T19:24:13.861Z,7.80
2023-01-17T19:26:42.585Z,5.70
2023-01-17T19:29:13.320Z,6.80
2023-01-17T19:31:43.903Z,5.80
2023-01-17T19:34:18.329Z,5.90
2023-01-17T19:36:50.124Z,7.20
2023-01-17T19:39:17.279Z,8.10
2023-01-17T19:41:47.187Z,7.90
2023-01-17T19:44:16.965Z,6.40
2023-01-17T19:46:45.601Z,8.00
2023-01-17T19:49:21.071Z,8.00
2023-01-17T19:51:49.992Z,8.80
2023-01-17T19:54:19.358Z,6.10
2023-01-17T19:56:48.815Z,7.10
2023-01-17T19:59:18.493Z,8.30
2023-01-17T20:01:48.310Z,6.90
2023-01-17T20:04:20.540Z,6.70
2023-01-17T20:06:47.446Z,6.40
2023-01-17T20:09:17.597Z,5.50
2023-01-17T20:11:51.607Z,7.20
2023-01-17T20:14:21.140Z,6.30
2023-01-17T20:16:49.188Z,9.60
2023-01-17T20:19:20.527Z,6.60
2023-01-17T20:21:47.791Z,7.80
2023-01-17T20:24:18.885Z,8.30
2023-01-17T20:26:45.660Z,7.10
2023-01-17T20:29:16.355Z,10.60
2023-01-17T20:31:48.346Z,8.00
2023-01-17T20:34:19.903Z,7.80
2023-01-17T20:36:47.502Z,5.70
2023-01-17T20:39:15.525Z,6.50
2023-01-17T20:41:45.736Z,6.30
2023-01-17T20:44:15.979Z,5.90
2023-01-17T20:46:45.893Z,6.90
2023-01-17T20:49:20.663Z,5.40
2023-01-17T20:51:48.193Z,5.30
2023-01-17T20:54:17.887Z,5.60
2023-01-17T20:56:49.289Z,4.70
2023-01-17T20:59:20.890Z,5.90
2023-01-17T21:01:49.246Z,5.30
2023-01-17T21:04:17.643Z,6.40
2023-01-17T21:06:46.779Z,6.80
2023-01-17T21:09:16.559Z,9.80
2023-01-17T21:11:43.623Z,11.80
2023-01-17T21:14:10.785Z,10.30
2023-01-17T21:16:37.721Z,8.40
2023-01-17T21:19:07.746Z,10.80
2023-01-17T21:21:37.282Z,8.50
2023-01-17T21:24:06.423Z,9.70
2023-01-17T21:26:33.444Z,9.50
2023-01-17T21:29:04.145Z,8.50
2023-01-17T21:34:05.291Z,9.40
2023-01-17T21:36:42.390Z,9.80
2023-01-17T21:39:15.404Z,9.80
2023-01-17T21:41:48.968Z,9.50
2023-01-17T21:44:21.165Z,8.30
2023-01-17T21:46:55.996Z,9.60
2023-01-17T21:49:27.031Z,8.30
2023-01-17T21:54:42.559Z,6.70
2023-01-17T21:57:29.688Z,7.30
2023-01-17T21:59:57.428Z,12.80
2023-01-17T22:02:24.513Z,10.60
2023-01-17T22:04:57.635Z,10.50
2023-01-17T22:07:26.712Z,8.80
2023-01-17T22:09:54.058Z,9.60
2023-01-17T22:12:20.927Z,8.10
2023-01-17T22:14:50.212Z,8.30
2023-01-17T22:17:17.196Z,6.90
2023-01-17T22:19:45.433Z,8.40
2023-01-17T22:22:12.410Z,6.60
2023-01-17T22:24:39.945Z,5.70
2023-01-17T22:27:10.070Z,6.00
2023-01-17T22:29:38.004Z,5.90
2023-01-17T22:32:07.165Z,5.40
2023-01-17T22:34:34.405Z,6.60
2023-01-17T22:37:03.673Z,7.40
2023-01-17T22:39:30.844Z,5.90
2023-01-17T22:41:58.104Z,6.80
2023-01-17T22:44:25.077Z,7.30
2023-01-17T22:46:51.903Z,4.90
2023-01-17T22:49:22.959Z,5.80
2023-01-17T22:51:52.426Z,8.40
2023-01-17T22:54:19.226Z,8.70
2023-01-17T22:56:46.247Z,9.70
2023-01-17T22:59:13.191Z,12.10
2023-01-17T23:01:40.110Z,10.00
2023-01-17T23:04:11.299Z,8.80
2023-01-17T23:06:40.529Z,7.40
2023-01-17T23:09:13.838Z,5.80
2023-01-17T23:11:49.319Z,7.60
2023-01-17T23:14:24.416Z,6.10
2023-01-17T23:17:18.328Z,5.90
2023-01-17T23:19:47.629Z,5.90
2023-01-17T23:22:19.955Z,6.10
2023-01-17T23:24:49.554Z,7.60
2023-01-17T23:27:39.401Z,8.80
2023-01-17T23:30:19.834Z,5.80
2023-01-17T23:32:58.376Z,13.20
2023-01-17T23:35:33.941Z,7.90
2023-01-17T23:38:19.854Z,13.70
2023-01-17T23:41:05.338Z,8.60
2023-01-17T23:43:37.886Z,10.10
2023-01-17T23:46:05.115Z,6.50
2023-01-17T23:48:33.692Z,8.70
2023-01-17T23:51:08.542Z,11.70
2023-01-17T23:53:37.459Z,8.30
2023-01-17T23:56:14.212Z,8.70
2023-01-17T23:58:41.134Z,5.70
